createdAt,value
2019-05-21T00:00:51.715Z,983.42
2019-05-21T00:01:51.716Z,983.40
2019-05-21T00:02:51.697Z,983.41
2019-05-21T00:03:51.678Z,983.43
2019-05-21T00:04:51.668Z,983.43
2019-05-21T00:05:51.654Z,983.42
2019-05-21T00:06:51.685Z,983.36
2019-05-21T00:07:51.633Z,983.36
2019-05-21T00:08:51.644Z,983.36
2019-05-21T00:09:51.625Z,983.35
2019-05-21T00:10:51.599Z,983.33
2019-05-21T00:11:51.587Z,983.37
2019-05-21T00:12:51.585Z,983.32
2019-05-21T00:13:51.641Z,983.33
2019-05-21T00:14:51.588Z,983.30
2019-05-21T00:15:51.567Z,983.31
2019-05-21T00:16:51.548Z,983.27
2019-05-21T00:17:51.571Z,983.26
2019-05-21T00:18:51.550Z,983.25
2019-05-21T00:19:51.519Z,983.30
2019-05-21T00:20:51.505Z,983.27
2019-05-21T00:21:51.486Z,983.28
2019-05-21T00:22:51.462Z,983.27
2019-05-21T00:23:51.451Z,983.29
2019-05-21T00:24:51.571Z,983.30
2019-05-21T00:25:51.450Z,983.28
2019-05-21T00:26:51.421Z,983.26
2019-05-21T00:27:51.451Z,983.29
2019-05-21T00:28:51.412Z,983.31
2019-05-21T00:29:51.417Z,983.36
2019-05-21T00:30:51.373Z,983.35
2019-05-21T00:31:51.384Z,983.28
2019-05-21T00:32:51.351Z,983.31
2019-05-21T00:33:51.344Z,983.31
2019-05-21T00:34:51.391Z,983.27
2019-05-21T00:35:51.344Z,983.29
2019-05-21T00:36:51.323Z,983.30
2019-05-21T00:37:51.297Z,983.32
2019-05-21T00:38:52.068Z,983.33
2019-05-21T00:39:51.296Z,983.32
2019-05-21T00:40:51.281Z,983.30
2019-05-21T00:41:51.288Z,983.30
2019-05-21T00:42:51.240Z,983.28
2019-05-21T00:43:51.226Z,983.27
2019-05-21T00:44:51.215Z,983.27
2019-05-21T00:45:51.231Z,983.25
2019-05-21T00:46:51.222Z,983.28
2019-05-21T00:47:51.205Z,983.27
2019-05-21T00:48:51.193Z,983.27
2019-05-21T00:49:51.160Z,983.24
2019-05-21T00:50:51.168Z,983.25
2019-05-21T00:52:05.085Z,983.26
2019-05-21T00:52:52.152Z,983.24
2019-05-21T00:53:51.186Z,983.27
2019-05-21T00:54:51.129Z,983.30
2019-05-21T00:55:51.096Z,983.27
2019-05-21T00:56:51.167Z,983.30
2019-05-21T00:57:51.075Z,983.25
2019-05-21T00:58:51.301Z,983.31
2019-05-21T00:59:51.092Z,983.26
2019-05-21T01:00:51.036Z,983.27
2019-05-21T01:01:51.040Z,983.29
2019-05-21T01:02:51.025Z,983.26
2019-05-21T01:03:51.048Z,983.27
2019-05-21T01:05:00.355Z,983.24
2019-05-21T01:05:51.994Z,983.32
2019-05-21T01:06:50.971Z,983.26
2019-05-21T01:07:50.981Z,983.23
2019-05-21T01:08:50.944Z,983.24
2019-05-21T01:09:50.934Z,983.26
2019-05-21T01:10:50.957Z,983.26
2019-05-21T01:11:50.911Z,983.22
2019-05-21T01:12:50.924Z,983.29
2019-05-21T01:13:50.895Z,983.23
2019-05-21T01:14:50.878Z,983.28
2019-05-21T01:15:50.926Z,983.32
2019-05-21T01:16:51.038Z,983.27
2019-05-21T01:17:50.870Z,983.28
2019-05-21T01:18:50.834Z,983.26
2019-05-21T01:19:50.824Z,983.23
2019-05-21T01:20:50.813Z,983.32
2019-05-21T01:21:50.894Z,983.33
2019-05-21T01:22:50.790Z,983.32
2019-05-21T01:23:50.807Z,983.29
2019-05-21T01:24:50.787Z,983.26
2019-05-21T01:25:50.755Z,983.33
2019-05-21T01:26:50.769Z,983.28
2019-05-21T01:27:50.787Z,983.30
2019-05-21T01:28:50.755Z,983.25
2019-05-21T01:29:50.713Z,983.43
2019-05-21T01:30:50.712Z,983.34
2019-05-21T01:31:50.731Z,983.37
2019-05-21T01:32:50.685Z,983.36
2019-05-21T01:33:50.667Z,983.37
2019-05-21T01:34:50.655Z,983.37
2019-05-21T01:35:50.645Z,983.35
2019-05-21T01:36:50.874Z,983.40
2019-05-21T01:37:50.624Z,983.42
2019-05-21T01:38:50.615Z,983.37
2019-05-21T01:39:50.602Z,983.35
2019-05-21T01:40:50.631Z,983.40
2019-05-21T01:41:50.640Z,983.42
2019-05-21T01:42:50.566Z,983.40
2019-05-21T01:43:50.556Z,983.40
2019-05-21T01:44:50.552Z,983.38
2019-05-21T01:45:50.547Z,983.41
2019-05-21T01:46:50.521Z,983.41
2019-05-21T01:47:50.513Z,983.42
2019-05-21T01:48:50.520Z,983.34
2019-05-21T01:49:50.490Z,983.37
2019-05-21T01:50:50.484Z,983.36
2019-05-21T01:51:50.490Z,983.37
2019-05-21T01:52:50.453Z,983.42
2019-05-21T01:53:50.473Z,983.38
2019-05-21T01:54:50.429Z,983.39
2019-05-21T01:55:50.420Z,983.36
2019-05-21T01:56:50.412Z,983.32
2019-05-21T01:57:50.433Z,983.38
2019-05-21T01:58:50.384Z,983.40
2019-05-21T01:59:50.395Z,983.37
2019-05-21T02:00:50.371Z,983.34
2019-05-21T02:01:50.350Z,983.34
2019-05-21T02:02:50.364Z,983.42
2019-05-21T02:03:50.336Z,983.43
2019-05-21T02:04:50.374Z,983.45
2019-05-21T02:05:50.394Z,983.44
2019-05-21T02:06:50.295Z,983.42
2019-05-21T02:07:50.285Z,983.48
2019-05-21T02:08:50.291Z,983.43
2019-05-21T02:09:50.262Z,983.48
2019-05-21T02:10:50.250Z,983.45
2019-05-21T02:11:50.251Z,983.44
2019-05-21T02:12:50.250Z,983.53
2019-05-21T02:13:50.215Z,983.47
2019-05-21T02:14:50.222Z,983.48
2019-05-21T02:15:50.199Z,983.51
2019-05-21T02:16:50.184Z,983.55
2019-05-21T02:17:50.196Z,983.55
2019-05-21T02:18:50.163Z,983.53
2019-05-21T02:19:50.157Z,983.49
2019-05-21T02:20:50.159Z,983.53
2019-05-21T02:21:50.136Z,983.50
2019-05-21T02:22:50.130Z,983.53
2019-05-21T02:23:50.132Z,983.49
2019-05-21T02:24:50.103Z,983.51
2019-05-21T02:25:50.091Z,983.42
2019-05-21T02:26:50.070Z,983.49
2019-05-21T02:27:50.067Z,983.51
2019-05-21T02:28:50.069Z,983.52
2019-05-21T02:29:50.036Z,983.55
2019-05-21T02:30:50.051Z,983.54
2019-05-21T02:31:50.019Z,983.56
2019-05-21T02:32:50.003Z,983.59
2019-05-21T02:33:49.991Z,983.58
2019-05-21T02:34:50.001Z,983.55
2019-05-21T02:35:54.197Z,983.64
2019-05-21T02:36:50.955Z,983.63
2019-05-21T02:37:49.947Z,983.67
2019-05-21T02:38:49.938Z,983.70
2019-05-21T02:39:49.957Z,983.70
2019-05-21T02:40:49.931Z,983.75
2019-05-21T02:41:49.900Z,983.71
2019-05-21T02:42:49.896Z,983.71
2019-05-21T02:43:49.904Z,983.74
2019-05-21T02:44:53.667Z,983.69
2019-05-21T02:45:49.858Z,983.79
2019-05-21T02:46:49.903Z,983.77
2019-05-21T02:47:49.835Z,983.81
2019-05-21T02:48:49.862Z,983.72
2019-05-21T02:49:49.815Z,983.76
2019-05-21T02:50:49.831Z,983.75
2019-05-21T02:51:49.798Z,983.77
2019-05-21T02:52:49.777Z,983.72
2019-05-21T02:53:49.766Z,983.72
2019-05-21T02:54:49.760Z,983.77
2019-05-21T02:55:49.784Z,983.78
2019-05-21T02:56:49.734Z,983.72
2019-05-21T02:57:49.744Z,983.77
2019-05-21T02:58:49.721Z,983.78
2019-05-21T02:59:49.706Z,983.80
2019-05-21T03:00:49.720Z,983.79
2019-05-21T03:01:49.682Z,983.85
2019-05-21T03:02:49.695Z,983.84
2019-05-21T03:03:49.660Z,983.78
2019-05-21T03:04:49.644Z,983.77
2019-05-21T03:05:49.662Z,983.81
2019-05-21T03:06:49.632Z,983.80
2019-05-21T03:07:49.620Z,983.84
2019-05-21T03:08:49.646Z,983.83
2019-05-21T03:09:49.603Z,983.82
2019-05-21T03:10:49.590Z,983.82
2019-05-21T03:11:49.564Z,983.87
2019-05-21T03:12:49.570Z,983.87
2019-05-21T03:13:49.577Z,983.84
2019-05-21T03:14:49.551Z,983.98
2019-05-21T03:15:49.537Z,983.87
2019-05-21T03:16:49.507Z,983.88
2019-05-21T03:17:49.522Z,983.90
2019-05-21T03:18:49.526Z,983.91
2019-05-21T03:19:49.473Z,983.90
2019-05-21T03:20:49.543Z,984.00
2019-05-21T03:21:49.451Z,984.00
2019-05-21T03:22:49.442Z,983.98
2019-05-21T03:23:49.430Z,984.05
2019-05-21T03:24:49.415Z,984.00
2019-05-21T03:25:49.433Z,984.09
2019-05-21T03:26:49.406Z,984.06
2019-05-21T03:27:49.387Z,984.09
2019-05-21T03:28:49.372Z,984.08
2019-05-21T03:29:49.360Z,984.09
2019-05-21T03:30:49.375Z,984.11
2019-05-21T03:31:49.374Z,984.13
2019-05-21T03:32:49.338Z,984.13
2019-05-21T03:33:49.385Z,984.10
2019-05-21T03:34:49.308Z,984.13
2019-05-21T03:35:49.325Z,984.19
2019-05-21T03:36:49.290Z,984.14
2019-05-21T03:37:49.309Z,984.16
2019-05-21T03:38:49.261Z,984.14
2019-05-21T03:39:49.347Z,984.20
2019-05-21T03:40:49.259Z,984.21
2019-05-21T03:41:49.226Z,984.17
2019-05-21T03:42:49.238Z,984.17
2019-05-21T03:43:49.205Z,984.23
2019-05-21T03:44:59.872Z,984.21
2019-05-21T03:45:50.180Z,984.23
2019-05-21T03:46:49.172Z,984.28
2019-05-21T03:47:49.208Z,984.26
2019-05-21T03:48:49.148Z,984.27
2019-05-21T03:49:49.141Z,984.27
2019-05-21T03:50:49.132Z,984.25
2019-05-21T03:51:49.114Z,984.33
2019-05-21T03:52:49.134Z,984.31
2019-05-21T03:53:49.171Z,984.32
2019-05-21T03:54:49.107Z,984.35
2019-05-21T03:55:49.094Z,984.32
2019-05-21T03:56:49.064Z,984.33
2019-05-21T03:57:49.047Z,984.31
2019-05-21T03:58:49.082Z,984.30
2019-05-21T03:59:49.024Z,984.24
2019-05-21T04:00:49.019Z,984.26
2019-05-21T04:01:49.002Z,984.27
2019-05-21T04:02:48.991Z,984.26
2019-05-21T04:03:49.006Z,984.27
2019-05-21T04:04:48.971Z,984.25
2019-05-21T04:05:48.973Z,984.33
2019-05-21T04:06:52.361Z,984.30
2019-05-21T04:07:48.974Z,984.30
2019-05-21T04:08:48.949Z,984.31
2019-05-21T04:09:48.917Z,984.31
2019-05-21T04:10:48.906Z,984.32
2019-05-21T04:11:52.870Z,984.31
2019-05-21T04:12:48.877Z,984.36
2019-05-21T04:13:48.884Z,984.36
2019-05-21T04:14:48.854Z,984.35
2019-05-21T04:15:48.882Z,984.36
2019-05-21T04:16:48.836Z,984.34
2019-05-21T04:17:48.825Z,984.30
2019-05-21T04:18:48.832Z,984.35
2019-05-21T04:19:48.816Z,984.39
2019-05-21T04:20:48.791Z,984.40
2019-05-21T04:21:48.808Z,984.45
2019-05-21T04:22:48.806Z,984.45
2019-05-21T04:23:48.768Z,984.42
2019-05-21T04:24:48.762Z,984.49
2019-05-21T04:25:48.730Z,984.48
2019-05-21T04:26:48.738Z,984.49
2019-05-21T04:27:48.712Z,984.47
2019-05-21T04:28:48.708Z,984.43
2019-05-21T04:29:48.686Z,984.50
2019-05-21T04:30:48.682Z,984.47
2019-05-21T04:31:48.685Z,984.46
2019-05-21T04:32:48.683Z,984.50
2019-05-21T04:33:48.653Z,984.52
2019-05-21T04:34:48.631Z,984.54
2019-05-21T04:35:48.655Z,984.56
2019-05-21T04:36:48.637Z,984.57
2019-05-21T04:37:48.623Z,984.54
2019-05-21T04:38:48.585Z,984.58
2019-05-21T04:39:48.625Z,984.60
2019-05-21T04:40:48.579Z,984.60
2019-05-21T04:41:48.557Z,984.62
2019-05-21T04:42:48.574Z,984.58
2019-05-21T04:43:48.534Z,984.59
2019-05-21T04:44:48.522Z,984.58
2019-05-21T04:45:48.557Z,984.62
2019-05-21T04:46:48.498Z,984.64
2019-05-21T04:47:48.489Z,984.59
2019-05-21T04:48:48.477Z,984.63
2019-05-21T04:49:48.494Z,984.67
2019-05-21T04:50:48.448Z,984.68
2019-05-21T04:51:48.442Z,984.74
2019-05-21T04:52:48.431Z,984.73
2019-05-21T04:53:48.426Z,984.75
2019-05-21T04:54:48.427Z,984.75
2019-05-21T04:55:48.400Z,984.77
2019-05-21T04:56:48.383Z,984.75
2019-05-21T04:57:48.411Z,984.75
2019-05-21T04:58:48.368Z,984.77
2019-05-21T04:59:48.347Z,984.78
2019-05-21T05:00:48.352Z,984.81
2019-05-21T05:01:48.356Z,984.82
2019-05-21T05:02:48.315Z,984.77
2019-05-21T05:03:48.377Z,984.79
2019-05-21T05:04:48.293Z,984.78
2019-05-21T05:05:48.302Z,984.79
2019-05-21T05:06:48.300Z,984.79
2019-05-21T05:07:48.274Z,984.83
2019-05-21T05:08:48.263Z,984.81
2019-05-21T05:09:48.243Z,984.82
2019-05-21T05:10:49.360Z,984.83
2019-05-21T05:11:48.212Z,984.83
2019-05-21T05:12:48.206Z,984.84
2019-05-21T05:13:48.222Z,984.92
2019-05-21T05:14:48.177Z,984.91
2019-05-21T05:15:48.168Z,984.95
2019-05-21T05:16:48.182Z,984.94
2019-05-21T05:17:48.146Z,984.99
2019-05-21T05:18:48.158Z,985.04
2019-05-21T05:19:48.126Z,985.03
2019-05-21T05:20:48.111Z,985.06
2019-05-21T05:21:48.114Z,985.07
2019-05-21T05:22:48.113Z,985.04
2019-05-21T05:23:48.079Z,985.10
2019-05-21T05:24:48.480Z,985.11
2019-05-21T05:25:48.056Z,985.08
2019-05-21T05:26:48.045Z,985.08
2019-05-21T05:27:48.104Z,985.14
2019-05-21T05:28:48.027Z,985.15
2019-05-21T05:29:48.010Z,985.17
2019-05-21T05:30:47.999Z,985.16
2019-05-21T05:31:47.995Z,985.22
2019-05-21T05:32:47.997Z,985.22
2019-05-21T05:33:47.967Z,985.24
2019-05-21T05:34:47.953Z,985.25
2019-05-21T05:35:47.974Z,985.24
2019-05-21T05:36:47.958Z,985.30
2019-05-21T05:37:49.029Z,985.29
2019-05-21T05:38:47.908Z,985.30
2019-05-21T05:39:47.953Z,985.34
2019-05-21T05:40:47.912Z,985.33
2019-05-21T05:41:47.874Z,985.34
2019-05-21T05:42:47.864Z,985.35
2019-05-21T05:43:47.878Z,985.35
2019-05-21T05:44:47.863Z,985.37
2019-05-21T05:45:47.853Z,985.37
2019-05-21T05:46:47.818Z,985.36
2019-05-21T05:47:47.810Z,985.41
2019-05-21T05:48:47.796Z,985.40
2019-05-21T05:49:47.796Z,985.45
2019-05-21T05:50:47.796Z,985.42
2019-05-21T05:51:47.763Z,985.39
2019-05-21T05:52:47.751Z,985.47
2019-05-21T05:53:47.740Z,985.46
2019-05-21T05:54:47.764Z,985.46
2019-05-21T05:55:47.760Z,985.47
2019-05-21T05:56:47.713Z,985.51
2019-05-21T05:57:47.694Z,985.49
2019-05-21T05:58:47.709Z,985.46
2019-05-21T05:59:47.680Z,985.47
2019-05-21T06:00:47.669Z,985.51
2019-05-21T06:01:47.688Z,985.54
2019-05-21T06:02:47.639Z,985.61
2019-05-21T06:03:47.652Z,985.55
2019-05-21T06:04:47.621Z,985.62
2019-05-21T06:05:47.637Z,985.62
2019-05-21T06:06:47.596Z,985.63
2019-05-21T06:07:59.338Z,985.58
2019-05-21T06:08:48.571Z,985.57
2019-05-21T06:09:47.589Z,985.63
2019-05-21T06:10:47.552Z,985.60
2019-05-21T06:11:47.551Z,985.67
2019-05-21T06:12:47.532Z,985.66
2019-05-21T06:13:47.535Z,985.64
2019-05-21T06:14:47.541Z,985.66
2019-05-21T06:15:47.493Z,985.65
2019-05-21T06:16:47.518Z,985.61
2019-05-21T06:17:47.476Z,985.65
2019-05-21T06:18:47.481Z,985.64
2019-05-21T06:19:47.476Z,985.69
2019-05-21T06:20:47.442Z,985.67
2019-05-21T06:21:47.428Z,985.73
2019-05-21T06:22:47.422Z,985.68
2019-05-21T06:23:47.459Z,985.68
2019-05-21T06:24:47.393Z,985.71
2019-05-21T06:25:47.407Z,985.71
2019-05-21T06:26:47.367Z,985.71
2019-05-21T06:27:47.355Z,985.72
2019-05-21T06:28:47.345Z,985.73
2019-05-21T06:29:47.338Z,985.73
2019-05-21T06:30:47.399Z,985.73
2019-05-21T06:31:47.962Z,985.75
2019-05-21T06:32:47.300Z,985.76
2019-05-21T06:33:47.287Z,985.75
2019-05-21T06:34:48.807Z,985.81
2019-05-21T06:35:47.289Z,985.77
2019-05-21T06:36:47.260Z,985.80
2019-05-21T06:37:47.245Z,985.80
2019-05-21T06:38:47.266Z,985.81
2019-05-21T06:39:47.221Z,985.80
2019-05-21T06:40:47.232Z,985.85
2019-05-21T06:41:47.200Z,985.90
2019-05-21T06:42:47.217Z,985.90
2019-05-21T06:43:47.199Z,985.97
2019-05-21T06:44:47.164Z,985.92
2019-05-21T06:45:47.167Z,985.94
2019-05-21T06:46:47.141Z,985.98
2019-05-21T06:47:47.129Z,986.00
2019-05-21T06:48:47.124Z,985.98
2019-05-21T06:49:47.164Z,986.01
2019-05-21T06:50:47.101Z,986.06
2019-05-21T06:51:47.130Z,986.07
2019-05-21T06:52:47.081Z,986.09
2019-05-21T06:53:47.081Z,986.13
2019-05-21T06:54:47.053Z,986.09
2019-05-21T06:55:47.042Z,986.05
2019-05-21T06:56:47.073Z,986.07
2019-05-21T06:57:47.017Z,986.07
2019-05-21T06:58:47.007Z,986.07
2019-05-21T06:59:47.059Z,986.08
2019-05-21T07:00:46.990Z,986.13
2019-05-21T07:01:46.996Z,986.10
2019-05-21T07:02:46.969Z,986.13
2019-05-21T07:03:46.951Z,986.17
2019-05-21T07:04:46.952Z,986.17
2019-05-21T07:05:58.422Z,986.14
2019-05-21T07:06:47.918Z,986.23
2019-05-21T07:07:46.923Z,986.21
2019-05-21T07:08:46.915Z,986.20
2019-05-21T07:09:46.907Z,986.26
2019-05-21T07:10:46.921Z,986.26
2019-05-21T07:11:46.865Z,986.29
2019-05-21T07:12:46.864Z,986.37
2019-05-21T07:13:46.871Z,986.33
2019-05-21T07:14:46.870Z,986.34
2019-05-21T07:15:46.872Z,986.33
2019-05-21T07:16:46.805Z,986.38
2019-05-21T07:17:46.793Z,986.36
2019-05-21T07:18:46.812Z,986.38
2019-05-21T07:19:46.798Z,986.40
2019-05-21T07:20:46.784Z,986.35
2019-05-21T07:21:46.821Z,986.36
2019-05-21T07:22:46.855Z,986.36
2019-05-21T07:23:46.726Z,986.41
2019-05-21T07:24:46.736Z,986.43
2019-05-21T07:25:46.707Z,986.46
2019-05-21T07:26:46.697Z,986.46
2019-05-21T07:27:46.688Z,986.52
2019-05-21T07:28:46.704Z,986.51
2019-05-21T07:29:46.682Z,986.59
2019-05-21T07:30:46.692Z,986.57
2019-05-21T07:31:46.639Z,986.58
2019-05-21T07:32:46.689Z,986.62
2019-05-21T07:33:46.639Z,986.62
2019-05-21T07:34:46.605Z,986.63
2019-05-21T07:35:46.622Z,986.66
2019-05-21T07:36:46.582Z,986.67
2019-05-21T07:37:46.568Z,986.68
2019-05-21T07:38:53.419Z,986.70
2019-05-21T07:39:47.615Z,986.71
2019-05-21T07:40:46.538Z,986.78
2019-05-21T07:41:46.532Z,986.80
2019-05-21T07:42:46.544Z,986.83
2019-05-21T07:43:46.501Z,986.85
2019-05-21T07:44:46.494Z,986.88
2019-05-21T07:45:46.477Z,986.90
2019-05-21T07:46:46.469Z,986.94
2019-05-21T07:47:46.479Z,986.92
2019-05-21T07:48:46.463Z,986.95
2019-05-21T07:49:46.436Z,986.97
2019-05-21T07:50:46.424Z,986.97
2019-05-21T07:51:46.461Z,986.93
2019-05-21T07:52:46.408Z,986.98
2019-05-21T07:53:46.389Z,987.02
2019-05-21T07:54:46.402Z,987.01
2019-05-21T07:55:46.369Z,987.07
2019-05-21T07:56:46.356Z,987.02
2019-05-21T07:57:46.387Z,987.07
2019-05-21T07:58:46.339Z,987.07
2019-05-21T07:59:46.332Z,987.08
2019-05-21T08:00:46.312Z,987.07
2019-05-21T08:01:46.299Z,987.07
2019-05-21T08:02:46.307Z,987.13
2019-05-21T08:03:46.299Z,987.08
2019-05-21T08:04:46.282Z,987.12
2019-05-21T08:05:46.255Z,987.12
2019-05-21T08:06:46.290Z,987.15
2019-05-21T08:07:46.275Z,987.17
2019-05-21T08:08:46.225Z,987.20
2019-05-21T08:09:46.215Z,987.20
2019-05-21T08:10:46.208Z,987.25
2019-05-21T08:11:47.196Z,987.23
2019-05-21T08:12:46.201Z,987.27
2019-05-21T08:13:46.173Z,987.30
2019-05-21T08:14:46.190Z,987.26
2019-05-21T08:15:46.144Z,987.33
2019-05-21T08:16:46.157Z,987.29
2019-05-21T08:17:46.134Z,987.29
2019-05-21T08:18:46.110Z,987.29
2019-05-21T08:19:46.125Z,987.27
2019-05-21T08:20:46.108Z,987.35
2019-05-21T08:21:46.075Z,987.35
2019-05-21T08:22:46.065Z,987.31
2019-05-21T08:23:46.076Z,987.37
2019-05-21T08:24:46.040Z,987.26
2019-05-21T08:25:46.030Z,987.30
2019-05-21T08:26:46.019Z,987.36
2019-05-21T08:27:46.058Z,987.34
2019-05-21T08:28:46.034Z,987.37
2019-05-21T08:29:46.006Z,987.39
2019-05-21T08:30:45.973Z,987.42
2019-05-21T08:31:45.959Z,987.41
2019-05-21T08:32:45.986Z,987.41
2019-05-21T08:33:45.939Z,987.43
2019-05-21T08:34:45.951Z,987.45
2019-05-21T08:35:45.923Z,987.50
2019-05-21T08:36:45.910Z,987.49
2019-05-21T08:37:45.900Z,987.51
2019-05-21T08:38:45.906Z,987.55
2019-05-21T08:39:45.872Z,987.52
2019-05-21T08:40:45.860Z,987.53
2019-05-21T08:41:45.874Z,987.51
2019-05-21T08:42:45.863Z,987.50
2019-05-21T08:43:45.826Z,987.56
2019-05-21T08:44:45.820Z,987.64
2019-05-21T08:45:45.802Z,987.58
2019-05-21T08:46:45.812Z,987.66
2019-05-21T08:47:45.808Z,987.66
2019-05-21T08:48:45.769Z,987.60
2019-05-21T08:49:45.772Z,987.67
2019-05-21T08:50:45.754Z,987.67
2019-05-21T08:51:45.739Z,987.65
2019-05-21T08:52:45.724Z,987.67
2019-05-21T08:53:45.729Z,987.71
2019-05-21T08:54:45.727Z,987.66
2019-05-21T08:55:45.712Z,987.70
2019-05-21T08:56:45.679Z,987.73
2019-05-21T08:57:45.672Z,987.75
2019-05-21T08:58:45.657Z,987.80
2019-05-21T08:59:45.676Z,987.78
2019-05-21T09:00:45.654Z,987.77
2019-05-21T09:01:45.649Z,987.83
2019-05-21T09:02:45.637Z,987.80
2019-05-21T09:03:45.607Z,987.82
2019-05-21T09:04:46.745Z,987.84
2019-05-21T09:05:45.601Z,987.87
2019-05-21T09:06:45.594Z,987.80
2019-05-21T09:07:45.580Z,987.85
2019-05-21T09:08:45.570Z,987.86
2019-05-21T09:09:51.315Z,987.91
2019-05-21T09:10:46.521Z,987.89
2019-05-21T09:11:45.531Z,987.93
2019-05-21T09:12:45.530Z,987.92
2019-05-21T09:13:45.511Z,987.87
2019-05-21T09:14:45.476Z,987.99
2019-05-21T09:15:45.517Z,987.95
2019-05-21T09:16:45.454Z,987.99
2019-05-21T09:17:45.466Z,988.01
2019-05-21T09:18:45.446Z,988.04
2019-05-21T09:19:45.422Z,987.99
2019-05-21T09:20:45.431Z,988.04
2019-05-21T09:21:45.397Z,988.01
2019-05-21T09:22:45.390Z,988.08
2019-05-21T09:23:45.396Z,988.11
2019-05-21T09:24:45.391Z,988.11
2019-05-21T09:25:45.354Z,988.09
2019-05-21T09:26:45.341Z,988.06
2019-05-21T09:27:45.357Z,988.13
2019-05-21T09:28:45.319Z,988.10
2019-05-21T09:29:45.309Z,988.19
2019-05-21T09:30:45.361Z,988.20
2019-05-21T09:31:45.289Z,988.21
2019-05-21T09:32:45.293Z,988.20
2019-05-21T09:33:45.267Z,988.24
2019-05-21T09:34:49.060Z,988.26
2019-05-21T09:35:45.241Z,988.27
2019-05-21T09:36:45.230Z,988.25
2019-05-21T09:37:45.246Z,988.28
2019-05-21T09:38:45.211Z,988.26
2019-05-21T09:39:45.263Z,988.29
2019-05-21T09:40:45.185Z,988.30
2019-05-21T09:41:45.175Z,988.28
2019-05-21T09:42:45.735Z,988.33
2019-05-21T09:43:45.149Z,988.30
2019-05-21T09:44:45.141Z,988.34
2019-05-21T09:45:45.169Z,988.36
2019-05-21T09:46:45.117Z,988.37
2019-05-21T09:47:45.116Z,988.34
2019-05-21T09:48:45.093Z,988.37
2019-05-21T09:49:45.106Z,988.36
2019-05-21T09:50:45.078Z,988.38
2019-05-21T09:51:45.060Z,988.41
2019-05-21T09:52:45.073Z,988.45
2019-05-21T09:53:45.050Z,988.42
2019-05-21T09:54:45.026Z,988.44
2019-05-21T09:55:45.059Z,988.41
2019-05-21T09:56:45.033Z,988.44
2019-05-21T09:57:44.996Z,988.42
2019-05-21T09:58:44.981Z,988.38
2019-05-21T09:59:44.974Z,988.38
2019-05-21T10:00:44.994Z,988.41
2019-05-21T10:01:47.966Z,988.42
2019-05-21T10:02:44.939Z,988.42
2019-05-21T10:03:45.060Z,988.44
2019-05-21T10:04:44.943Z,988.44
2019-05-21T10:05:44.927Z,988.50
2019-05-21T10:06:44.894Z,988.50
2019-05-21T10:07:44.909Z,988.52
2019-05-21T10:08:44.868Z,988.57
2019-05-21T10:09:44.880Z,988.51
2019-05-21T10:10:44.873Z,988.49
2019-05-21T10:11:44.835Z,988.54
2019-05-21T10:12:44.825Z,988.57
2019-05-21T10:13:44.813Z,988.56
2019-05-21T10:14:44.810Z,988.59
2019-05-21T10:15:44.834Z,988.63
2019-05-21T10:16:44.782Z,988.64
2019-05-21T10:17:44.803Z,988.64
2019-05-21T10:18:44.760Z,988.70
2019-05-21T10:19:44.743Z,988.69
2019-05-21T10:20:44.737Z,988.71
2019-05-21T10:21:44.735Z,988.72
2019-05-21T10:22:44.737Z,988.73
2019-05-21T10:23:44.704Z,988.71
2019-05-21T10:24:44.691Z,988.71
2019-05-21T10:25:44.681Z,988.79
2019-05-21T10:26:44.670Z,988.75
2019-05-21T10:27:44.683Z,988.75
2019-05-21T10:28:44.651Z,988.80
2019-05-21T10:29:44.638Z,988.76
2019-05-21T10:30:44.624Z,988.82
2019-05-21T10:31:44.631Z,988.80
2019-05-21T10:32:44.632Z,988.79
2019-05-21T10:33:44.589Z,988.81
2019-05-21T10:34:44.584Z,988.83
2019-05-21T10:35:44.565Z,988.87
2019-05-21T10:36:44.560Z,988.84
2019-05-21T10:37:54.672Z,988.87
2019-05-21T10:38:45.560Z,988.84
2019-05-21T10:39:44.523Z,988.90
2019-05-21T10:40:44.520Z,988.90
2019-05-21T10:41:46.119Z,988.95
2019-05-21T10:42:44.485Z,988.94
2019-05-21T10:43:44.487Z,988.95
2019-05-21T10:44:44.490Z,988.98
2019-05-21T10:45:44.452Z,988.97
2019-05-21T10:46:44.443Z,989.01
2019-05-21T10:47:44.479Z,988.97
2019-05-21T10:48:44.420Z,989.06
2019-05-21T10:49:44.434Z,989.00
2019-05-21T10:50:44.423Z,989.06
2019-05-21T10:51:44.387Z,989.02
2019-05-21T10:52:44.379Z,989.04
2019-05-21T10:53:44.371Z,989.06
2019-05-21T10:54:44.373Z,989.05
2019-05-21T10:55:44.362Z,989.07
2019-05-21T10:56:47.747Z,989.07
2019-05-21T10:57:44.367Z,989.08
2019-05-21T10:58:44.304Z,989.08
2019-05-21T10:59:44.301Z,989.06
2019-05-21T11:00:44.312Z,989.10
2019-05-21T11:01:44.278Z,989.10
2019-05-21T11:02:44.291Z,989.11
2019-05-21T11:03:44.254Z,989.12
2019-05-21T11:04:44.437Z,989.16
2019-05-21T11:05:44.264Z,989.19
2019-05-21T11:06:44.223Z,989.20
2019-05-21T11:07:44.204Z,989.18
2019-05-21T11:08:44.210Z,989.19
2019-05-21T11:09:44.189Z,989.22
2019-05-21T11:10:44.178Z,989.24
2019-05-21T11:11:44.189Z,989.27
2019-05-21T11:12:44.161Z,989.25
2019-05-21T11:13:44.149Z,989.23
2019-05-21T11:14:44.139Z,989.29
2019-05-21T11:15:44.148Z,989.32
2019-05-21T11:16:44.115Z,989.27
2019-05-21T11:17:59.021Z,989.31
2019-05-21T11:18:45.078Z,989.32
2019-05-21T11:19:44.077Z,989.30
2019-05-21T11:20:44.060Z,989.36
2019-05-21T11:21:44.046Z,989.31
2019-05-21T11:22:44.085Z,989.34
2019-05-21T11:23:44.058Z,989.35
2019-05-21T11:24:44.021Z,989.39
2019-05-21T11:25:44.076Z,989.38
2019-05-21T11:26:43.990Z,989.35
2019-05-21T11:27:44.013Z,989.42
2019-05-21T11:28:43.972Z,989.42
2019-05-21T11:29:43.966Z,989.44
2019-05-21T11:30:43.980Z,989.42
2019-05-21T11:31:56.503Z,989.46
2019-05-21T11:32:47.835Z,989.46
2019-05-21T11:33:43.940Z,989.44
2019-05-21T11:34:43.907Z,989.51
2019-05-21T11:35:43.894Z,989.49
2019-05-21T11:36:43.897Z,989.53
2019-05-21T11:37:47.630Z,989.51
2019-05-21T11:38:43.880Z,989.60
2019-05-21T11:39:43.853Z,989.49
2019-05-21T11:40:43.877Z,989.51
2019-05-21T11:41:43.824Z,989.58
2019-05-21T11:42:43.895Z,989.56
2019-05-21T11:43:43.799Z,989.59
2019-05-21T11:44:43.791Z,989.58
2019-05-21T11:45:43.779Z,989.56
2019-05-21T11:46:43.765Z,989.55
2019-05-21T11:47:43.821Z,989.56
2019-05-21T11:48:43.764Z,989.65
2019-05-21T11:49:43.736Z,989.57
2019-05-21T11:50:43.730Z,989.57
2019-05-21T11:51:43.725Z,989.65
2019-05-21T11:52:43.701Z,989.61
2019-05-21T11:53:43.709Z,989.63
2019-05-21T11:54:43.677Z,989.61
2019-05-21T11:55:43.675Z,989.62
2019-05-21T11:56:43.652Z,989.56
2019-05-21T11:57:43.668Z,989.61
2019-05-21T11:58:43.645Z,989.60
2019-05-21T11:59:43.627Z,989.62
2019-05-21T12:00:43.632Z,989.55
2019-05-21T12:01:43.600Z,989.64
2019-05-21T12:02:43.589Z,989.61
2019-05-21T12:03:43.587Z,989.63
2019-05-21T12:04:43.571Z,989.64
2019-05-21T12:05:43.580Z,989.71
2019-05-21T12:06:43.566Z,989.68
2019-05-21T12:07:43.532Z,989.68
2019-05-21T12:08:56.111Z,989.71
2019-05-21T12:09:44.506Z,989.70
2019-05-21T12:10:43.502Z,989.71
2019-05-21T12:11:43.486Z,989.72
2019-05-21T12:12:43.475Z,989.71
2019-05-21T12:13:43.485Z,989.70
2019-05-21T12:14:43.456Z,989.72
2019-05-21T12:15:43.449Z,989.73
2019-05-21T12:16:43.430Z,989.74
2019-05-21T12:17:43.432Z,989.76
2019-05-21T12:18:43.435Z,989.79
2019-05-21T12:19:43.397Z,989.75
2019-05-21T12:20:43.383Z,989.78
2019-05-21T12:21:43.398Z,989.79
2019-05-21T12:22:43.364Z,989.77
2019-05-21T12:23:43.365Z,989.77
2019-05-21T12:24:43.338Z,989.72
2019-05-21T12:25:43.334Z,989.79
2019-05-21T12:26:43.382Z,989.80
2019-05-21T12:27:43.306Z,989.81
2019-05-21T12:28:43.295Z,989.82